Flight Track Log - Related Links

Times and Time Zones

All times are in EST time to prevent confusion due to time zone crossing. See the DAL1098 flight status page for this flight to view local times or setup timezone preferences in your user account.

Time Position Orientation Groundspeed Altitude Reporting Facility
EST Latitude Longitude Course Direction KTS MPH feet Rate Location/Type
Wed 07:12:31 PM 41.3131 -95.9119 360° North 126 145 2,000  Level Minneapolis Center
Wed 07:13:01 PM 41.3361 -95.9119 360° North 167 192 2,800 1,304 Climbing Minneapolis Center
Wed 07:13:17 PM 41.3444 -95.9028 40° Northeast 179 206 3,000 3,538 Climbing Minneapolis Center
Wed 07:14:19 PM 41.3778 -95.8178 62° Northeast 263 303 7,400 3,677 Climbing Minneapolis Center
Wed 07:15:21 PM 41.3433 -95.7164 114° Southeast 287 330 10,600 2,516 Climbing Minneapolis Center
Wed 07:16:23 PM 41.2997 -95.5931 115° Southeast 334 384 12,600 2,323 Climbing Minneapolis Center
Wed 07:17:25 PM 41.2500 -95.4564 116° Southeast 395 455 15,400 2,710 Climbing Minneapolis Center
Wed 07:18:27 PM 41.1886 -95.3183 121° Southeast 424 488 18,200 2,661 Climbing Minneapolis Center
Wed 07:19:29 PM 41.1250 -95.1783 121° Southeast 436 502 20,900 2,419 Climbing Minneapolis Center
Wed 07:20:31 PM 41.0603 -95.0331 121° Southeast 450 518 23,200 2,323 Climbing Minneapolis Center
Wed 07:21:33 PM 40.9797 -94.8547 121° Southeast 464 534 25,700 2,177 Climbing Minneapolis Center
Wed 07:22:35 PM 40.9111 -94.7036 121° Southeast 474 545 27,700 1,776 Climbing Minneapolis Center
Wed 07:23:38 PM 40.8386 -94.5483 122° Southeast 484 557 29,400 1,584 Climbing Minneapolis Center
Wed 07:24:40 PM 40.7667 -94.3958 122° Southeast 489 563 31,000 1,500 Climbing Minneapolis Center
Wed 07:25:42 PM 40.6961 -94.2458 122° Southeast 489 563 32,500 1,113 Climbing Minneapolis Center
Wed 07:26:44 PM 40.6286 -94.0950 120° Southeast 486 559 33,300 919 Climbing Minneapolis Center
Wed 07:27:46 PM 40.5442 -93.9125 121° Southeast 488 562 34,400 1,355 Climbing Minneapolis Center
Wed 07:28:48 PM 40.4753 -93.7606 121° Southeast 488 562 36,100 1,065 Climbing Minneapolis Center
Wed 07:29:50 PM 40.4086 -93.6142 121° Southeast 479 551 36,600 509 Climbing Minneapolis Center
Wed 07:30:34 PM 40.3522 -93.4958 122° Southeast 477 549 37,000 226 Climbing Kansas City Center
Wed 07:31:36 PM 40.2833 -93.3469 121° Southeast 479 551 37,000  Level Kansas City Center
Wed 07:32:38 PM 40.2133 -93.1997 122° Southeast 481 554 37,000  Level Kansas City Center
Wed 07:33:40 PM 40.1319 -93.0297 122° Southeast 479 551 37,000  Level Kansas City Center
Wed 07:34:42 PM 40.0636 -92.8833 121° Southeast 472 543 37,000  Level Kansas City Center
Wed 07:35:44 PM 39.9956 -92.7403 122° Southeast 471 542 37,000  Level Kansas City Center
Wed 07:36:46 PM 39.9283 -92.5989 122° Southeast 469 540 37,000  Level Kansas City Center
Wed 07:37:48 PM 39.8600 -92.4597 123° Southeast 465 535 37,000  Level Kansas City Center
Wed 07:38:50 PM 39.7900 -92.3200 123° Southeast 466 536 37,000  Level Kansas City Center
Wed 07:39:52 PM 39.7067 -92.1514 123° Southeast 466 536 37,000  Level Kansas City Center
Wed 07:40:54 PM 39.6361 -92.0103 123° Southeast 468 539 37,000  Level Kansas City Center
Wed 07:41:56 PM 39.5650 -91.8714 124° Southeast 467 537 37,000  Level Kansas City Center
Wed 07:42:58 PM 39.4956 -91.7314 123° Southeast 466 536 37,000  Level Kansas City Center
Wed 07:44:00 PM 39.4122 -91.5672 123° Southeast 468 539 37,000  Level Kansas City Center
Wed 07:45:01 PM 39.3406 -91.4211 122° Southeast 477 549 37,000  Level Kansas City Center
Wed 07:46:03 PM 39.2669 -91.2739 123° Southeast 485 558 37,000  Level Kansas City Center
Wed 07:47:05 PM 39.1936 -91.1292 123° Southeast 484 557 37,000  Level Kansas City Center
Wed 07:48:07 PM 39.1194 -90.9828 123° Southeast 485 558 37,000  Level Kansas City Center
Wed 07:49:09 PM 39.0456 -90.8367 123° Southeast 488 562 37,000  Level Kansas City Center
Wed 07:50:11 PM 38.9556 -90.6611 123° Southeast 490 564 37,000  Level Kansas City Center
Wed 07:51:13 PM 38.8847 -90.5228 123° Southeast 488 562 37,000  Level Kansas City Center
Wed 07:52:15 PM 38.8011 -90.3925 129° Southeast 473 544 37,000  Level Kansas City Center
Wed 07:53:16 PM 38.7131 -90.2692 132° Southeast 471 542 37,000  Level Kansas City Center
Wed 07:54:18 PM 38.6200 -90.1269 130° Southeast 469 540 37,000  Level Kansas City Center
Wed 07:55:20 PM 38.5331 -90.0028 132° Southeast 469 540 37,000  Level Kansas City Center
Wed 07:56:22 PM 38.4478 -89.8794 131° Southeast 466 536 37,000  Level Kansas City Center
Wed 07:57:24 PM 38.3619 -89.7542 131° Southeast 468 539 37,000  Level Kansas City Center
Wed 07:58:26 PM 38.2747 -89.6283 131° Southeast 473 544 37,000  Level Kansas City Center
Wed 07:59:28 PM 38.1878 -89.5031 131° Southeast 473 544 37,000  Level Kansas City Center
Wed 08:00:30 PM 38.0836 -89.3542 132° Southeast 472 543 37,000  Level Kansas City Center
Wed 08:01:31 PM 37.9903 -89.2206 132° Southeast 471 542 37,000  Level Kansas City Center
Wed 08:02:33 PM 37.9047 -89.0956 131° Southeast 470 541 37,000  Level Kansas City Center
Wed 08:03:35 PM 37.8231 -88.9817 132° Southeast 472 543 37,000  Level Kansas City Center
Wed 08:04:37 PM 37.7292 -88.8456 131° Southeast 469 540 37,000  Level Kansas City Center
Wed 08:05:39 PM 37.6375 -88.7203 133° Southeast 465 535 37,000  Level Kansas City Center
Wed 08:06:35 PM 37.5547 -88.6042 132° Southeast 469 540 37,000  Level Memphis Center
Wed 08:07:35 PM 37.4697 -88.4808 131° Southeast 469 540 37,000  Level Memphis Center
Wed 08:08:35 PM 37.3803 -88.3575 132° Southeast 469 540 37,000  Level Memphis Center
Wed 08:09:35 PM 37.2931 -88.2400 133° Southeast 463 533 37,000  Level Memphis Center
Wed 08:10:35 PM 37.2075 -88.1197 132° Southeast 463 533 37,000  Level Memphis Center
Wed 08:11:35 PM 37.1283 -88.0103 132° Southeast 463 533 37,000  Level Memphis Center
Wed 08:12:35 PM 37.0322 -87.8806 133° Southeast 463 533 37,000  Level Memphis Center
Wed 08:13:35 PM 36.9444 -87.7639 133° Southeast 463 533 37,000  Level Memphis Center
Wed 08:14:35 PM 36.8564 -87.6447 133° Southeast 463 533 37,000  Level Memphis Center
Wed 08:15:35 PM 36.7703 -87.5286 133° Southeast 463 533 37,000  Level Memphis Center
Wed 08:16:35 PM 36.6842 -87.4125 133° Southeast 463 533 37,000  Level Memphis Center
Wed 08:17:35 PM 36.5961 -87.2942 133° Southeast 463 533 37,000 -450 Level Memphis Center
Wed 08:18:35 PM 36.5117 -87.1761 132° Southeast 463 533 36,100 -1,000 Descending Memphis Center
Wed 08:19:35 PM 36.4231 -87.0583 133° Southeast 463 533 35,000 -550 Descending Memphis Center
Wed 08:20:35 PM 36.3281 -86.9361 134° Southeast 474 545 35,000 -50 Level Memphis Center
Wed 08:21:35 PM 36.2544 -86.8389 133° Southeast 480 552 34,900 -600 Descending Memphis Center
Wed 08:22:35 PM 36.1506 -86.6994 133° Southeast 480 552 33,800 -950 Descending Memphis Center
Wed 08:23:35 PM 36.0497 -86.6036 142° Southeast 460 529 33,000 -400 Descending Memphis Center
Wed 08:24:35 PM 35.9428 -86.5214 148° Southeast 453 521 33,000  Level Memphis Center
Wed 08:26:09 PM 35.7814 -86.3911 147° Southeast 447 514 33,000  Level Atlanta Center
Wed 08:27:09 PM 35.6767 -86.3064 147° Southeast 452 520 33,000  Level Atlanta Center
Wed 08:28:09 PM 35.5697 -86.2217 147° Southeast 452 520 33,000  Level Atlanta Center
Wed 08:29:09 PM 35.4728 -86.1478 148° Southeast 452 520 33,000  Level Atlanta Center
Wed 08:30:09 PM 35.3533 -86.0506 146° Southeast 458 527 33,000  Level Atlanta Center
Wed 08:31:09 PM 35.2464 -85.9614 146° Southeast 458 527 33,000  Level Atlanta Center
Wed 08:32:09 PM 35.1536 -85.8856 146° Southeast 457 526 33,000 -550 Level Atlanta Center
Wed 08:33:09 PM 35.0506 -85.7994 146° Southeast 452 520 31,900 -1,300 Descending Atlanta Center
Wed 08:34:09 PM 34.9475 -85.7136 146° Southeast 452 520 30,400 -1,150 Descending Atlanta Center
Wed 08:35:09 PM 34.8400 -85.6306 148° Southeast 458 527 29,600 -950 Descending Atlanta Center
Wed 08:36:09 PM 34.7325 -85.5400 145° Southeast 463 533 28,500 -2,350 Descending Atlanta Center
Wed 08:37:09 PM 34.6272 -85.4550 146° Southeast 463 533 24,900 -3,250 Descending Atlanta Center
Wed 08:38:09 PM 34.5239 -85.3725 147° Southeast 463 533 22,000 -2,750 Descending Atlanta Center
Wed 08:39:09 PM 34.4244 -85.2903 146° Southeast 452 520 19,400 -2,850 Descending Atlanta Center
Wed 08:40:09 PM 34.3208 -85.2083 147° Southeast 418 481 16,300 -3,000 Descending Atlanta Center
Wed 08:41:09 PM 34.2319 -85.1342 145° Southeast 405 466 13,400 -1,650 Descending Atlanta Center
Wed 08:42:09 PM 34.1447 -85.0653 147° Southeast 386 444 13,000 -300 Descending Atlanta Center
Wed 08:43:09 PM 34.0703 -84.9992 144° Southeast 350 403 12,800 -900 Descending Atlanta Center
Wed 08:44:09 PM 34.0122 -84.9258 134° Southeast 311 358 11,200 -1,700 Descending Atlanta Center
Wed 08:45:09 PM 33.9544 -84.8528 134° Southeast 299 344 9,400 -1,100 Descending Atlanta Center
Wed 08:46:09 PM 33.8939 -84.8272 161° South 291 335 9,000 -750 Descending Atlanta Center
Wed 08:47:09 PM 33.8272 -84.8239 178° South 244 281 7,900 -1,000 Descending Atlanta Center
Wed 08:48:09 PM 33.7625 -84.8208 178° South 236 272 7,000 -1,200 Descending Atlanta Center
Wed 08:49:09 PM 33.7019 -84.8178 178° South 231 266 5,500 -1,000 Descending Atlanta Center
Wed 08:50:09 PM 33.6647 -84.7628 129° Southeast 204 235 5,000 -587 Descending Atlanta Center
Wed 08:51:32 PM 33.6500 -84.6667 100° East 191 220 4,100 -587 Descending Atlanta TRACON
Wed 08:52:32 PM 33.6500 -84.6000 90° East 191 220 3,600 -684 Descending Atlanta TRACON
Wed 08:53:26 PM 33.6500 -84.5500 90° East 180 207 2,800 -842 Descending Atlanta TRACON
Wed 08:54:26 PM 33.6500 -84.5000 90° East 137 158 2,000 -750 Descending Atlanta TRACON
Wed 08:55:26 PM 33.6500 -84.4500 90° East 132 152 1,300 -700 Descending Atlanta TRACON

Login

Don't have an account? Register now (free) for customized features, flight alerts, and more!